sensor_id;sensor_type;location;lat;lon;timestamp;P1;durP1;ratioP1;P2;durP2;ratioP2
11887;SDS011;6003;42.756;23.130;2022-07-29T00:02:08;12.73;;;11.43;;
11887;SDS011;6003;42.756;23.130;2022-07-29T00:04:36;12.20;;;11.00;;
11887;SDS011;6003;42.756;23.130;2022-07-29T00:07:03;12.10;;;11.00;;
11887;SDS011;6003;42.756;23.130;2022-07-29T00:09:30;13.07;;;10.27;;
11887;SDS011;6003;42.756;23.130;2022-07-29T00:11:58;13.17;;;9.80;;
11887;SDS011;6003;42.756;23.130;2022-07-29T00:14:27;12.03;;;10.73;;
11887;SDS011;6003;42.756;23.130;2022-07-29T00:16:54;11.27;;;9.77;;
11887;SDS011;6003;42.756;23.130;2022-07-29T00:19:23;11.33;;;10.17;;
11887;SDS011;6003;42.756;23.130;2022-07-29T00:21:50;11.37;;;10.20;;
11887;SDS011;6003;42.756;23.130;2022-07-29T00:24:17;11.10;;;9.93;;
11887;SDS011;6003;42.756;23.130;2022-07-29T00:26:44;11.63;;;10.00;;
11887;SDS011;6003;42.756;23.130;2022-07-29T00:29:11;11.43;;;10.23;;
11887;SDS011;6003;42.756;23.130;2022-07-29T00:31:38;11.57;;;10.37;;
11887;SDS011;6003;42.756;23.130;2022-07-29T00:34:05;11.13;;;10.03;;
11887;SDS011;6003;42.756;23.130;2022-07-29T00:36:54;10.97;;;9.87;;
11887;SDS011;6003;42.756;23.130;2022-07-29T00:39:19;13.17;;;10.10;;
11887;SDS011;6003;42.756;23.130;2022-07-29T00:41:47;11.60;;;9.87;;
11887;SDS011;6003;42.756;23.130;2022-07-29T00:44:14;11.83;;;10.43;;
11887;SDS011;6003;42.756;23.130;2022-07-29T00:46:41;10.63;;;9.53;;
11887;SDS011;6003;42.756;23.130;2022-07-29T00:49:08;10.93;;;9.70;;
11887;SDS011;6003;42.756;23.130;2022-07-29T00:51:35;10.20;;;9.00;;
11887;SDS011;6003;42.756;23.130;2022-07-29T00:54:05;10.17;;;9.17;;
11887;SDS011;6003;42.756;23.130;2022-07-29T00:56:32;10.40;;;9.40;;
11887;SDS011;6003;42.756;23.130;2022-07-29T00:59:00;13.03;;;9.50;;
11887;SDS011;6003;42.756;23.130;2022-07-29T01:01:27;10.90;;;9.80;;
11887;SDS011;6003;42.756;23.130;2022-07-29T01:03:54;10.40;;;9.33;;
11887;SDS011;6003;42.756;23.130;2022-07-29T01:06:21;10.13;;;9.07;;
11887;SDS011;6003;42.756;23.130;2022-07-29T01:08:50;10.20;;;9.10;;
11887;SDS011;6003;42.756;23.130;2022-07-29T01:11:19;13.67;;;9.97;;
11887;SDS011;6003;42.756;23.130;2022-07-29T01:13:46;10.87;;;9.77;;
11887;SDS011;6003;42.756;23.130;2022-07-29T01:16:15;12.07;;;10.87;;
11887;SDS011;6003;42.756;23.130;2022-07-29T01:18:48;12.20;;;10.97;;
11887;SDS011;6003;42.756;23.130;2022-07-29T01:21:36;11.00;;;9.93;;
11887;SDS011;6003;42.756;23.130;2022-07-29T01:24:30;10.83;;;9.73;;
11887;SDS011;6003;42.756;23.130;2022-07-29T01:27:10;10.97;;;9.90;;
11887;SDS011;6003;42.756;23.130;2022-07-29T01:29:53;10.90;;;9.80;;
11887;SDS011;6003;42.756;23.130;2022-07-29T01:32:24;9.93;;;9.03;;
11887;SDS011;6003;42.756;23.130;2022-07-29T01:34:55;10.83;;;9.73;;
11887;SDS011;6003;42.756;23.130;2022-07-29T01:37:28;10.70;;;9.40;;
11887;SDS011;6003;42.756;23.130;2022-07-29T01:39:59;11.93;;;10.23;;
11887;SDS011;6003;42.756;23.130;2022-07-29T01:42:32;12.30;;;10.97;;
11887;SDS011;6003;42.756;23.130;2022-07-29T01:45:06;12.77;;;11.03;;
11887;SDS011;6003;42.756;23.130;2022-07-29T01:47:39;11.93;;;10.33;;
11887;SDS011;6003;42.756;23.130;2022-07-29T01:50:11;10.87;;;9.87;;
11887;SDS011;6003;42.756;23.130;2022-07-29T01:52:42;12.73;;;11.40;;
11887;SDS011;6003;42.756;23.130;2022-07-29T01:55:13;10.60;;;9.60;;
11887;SDS011;6003;42.756;23.130;2022-07-29T01:57:43;15.23;;;10.23;;
11887;SDS011;6003;42.756;23.130;2022-07-29T02:00:15;13.13;;;10.37;;
11887;SDS011;6003;42.756;23.130;2022-07-29T02:02:43;11.70;;;10.33;;
11887;SDS011;6003;42.756;23.130;2022-07-29T02:05:13;14.30;;;10.07;;
11887;SDS011;6003;42.756;23.130;2022-07-29T02:07:56;11.07;;;9.97;;
11887;SDS011;6003;42.756;23.130;2022-07-29T02:10:26;14.23;;;10.50;;
11887;SDS011;6003;42.756;23.130;2022-07-29T02:12:56;12.37;;;10.57;;
11887;SDS011;6003;42.756;23.130;2022-07-29T02:15:26;13.07;;;10.97;;
11887;SDS011;6003;42.756;23.130;2022-07-29T02:17:56;13.60;;;10.90;;
11887;SDS011;6003;42.756;23.130;2022-07-29T02:20:26;11.43;;;10.30;;
11887;SDS011;6003;42.756;23.130;2022-07-29T02:22:54;11.07;;;9.97;;
11887;SDS011;6003;42.756;23.130;2022-07-29T02:25:23;11.63;;;9.77;;
11887;SDS011;6003;42.756;23.130;2022-07-29T02:27:51;11.47;;;10.27;;
11887;SDS011;6003;42.756;23.130;2022-07-29T02:30:20;12.00;;;10.80;;
11887;SDS011;6003;42.756;23.130;2022-07-29T02:32:50;12.23;;;10.93;;
11887;SDS011;6003;42.756;23.130;2022-07-29T02:35:18;16.87;;;11.50;;
11887;SDS011;6003;42.756;23.130;2022-07-29T02:37:47;14.13;;;11.27;;
11887;SDS011;6003;42.756;23.130;2022-07-29T02:40:36;12.50;;;11.30;;
11887;SDS011;6003;42.756;23.130;2022-07-29T02:43:06;13.07;;;11.47;;
11887;SDS011;6003;42.756;23.130;2022-07-29T02:45:34;14.30;;;10.97;;
11887;SDS011;6003;42.756;23.130;2022-07-29T02:48:04;13.53;;;11.37;;
11887;SDS011;6003;42.756;23.130;2022-07-29T02:50:37;13.07;;;11.77;;
11887;SDS011;6003;42.756;23.130;2022-07-29T02:53:07;13.80;;;12.33;;
11887;SDS011;6003;42.756;23.130;2022-07-29T02:55:40;14.67;;;13.03;;
11887;SDS011;6003;42.756;23.130;2022-07-29T02:58:13;15.07;;;11.80;;
11887;SDS011;6003;42.756;23.130;2022-07-29T03:00:48;13.27;;;11.87;;
11887;SDS011;6003;42.756;23.130;2022-07-29T03:03:19;17.20;;;12.63;;
11887;SDS011;6003;42.756;23.130;2022-07-29T03:05:47;15.43;;;12.60;;
11887;SDS011;6003;42.756;23.130;2022-07-29T03:08:14;14.17;;;12.53;;
11887;SDS011;6003;42.756;23.130;2022-07-29T03:10:43;13.37;;;12.03;;
11887;SDS011;6003;42.756;23.130;2022-07-29T03:13:12;15.83;;;13.57;;
11887;SDS011;6003;42.756;23.130;2022-07-29T03:15:39;16.50;;;12.23;;
11887;SDS011;6003;42.756;23.130;2022-07-29T03:18:09;13.83;;;12.43;;
11887;SDS011;6003;42.756;23.130;2022-07-29T03:20:38;15.23;;;12.73;;
11887;SDS011;6003;42.756;23.130;2022-07-29T03:23:06;15.07;;;13.50;;
11887;SDS011;6003;42.756;23.130;2022-07-29T03:25:35;14.97;;;12.73;;
11887;SDS011;6003;42.756;23.130;2022-07-29T03:28:01;16.67;;;13.63;;
11887;SDS011;6003;42.756;23.130;2022-07-29T03:30:29;15.87;;;13.47;;
11887;SDS011;6003;42.756;23.130;2022-07-29T03:32:56;15.03;;;13.43;;
11887;SDS011;6003;42.756;23.130;2022-07-29T03:35:23;17.47;;;13.87;;
11887;SDS011;6003;42.756;23.130;2022-07-29T03:37:56;14.93;;;13.13;;
11887;SDS011;6003;42.756;23.130;2022-07-29T03:40:25;15.37;;;13.63;;
11887;SDS011;6003;42.756;23.130;2022-07-29T03:42:56;14.73;;;13.07;;
11887;SDS011;6003;42.756;23.130;2022-07-29T03:45:26;16.63;;;13.23;;
11887;SDS011;6003;42.756;23.130;2022-07-29T03:48:00;15.17;;;12.97;;
11887;SDS011;6003;42.756;23.130;2022-07-29T03:50:31;15.33;;;12.80;;
11887;SDS011;6003;42.756;23.130;2022-07-29T03:53:02;16.67;;;12.33;;
11887;SDS011;6003;42.756;23.130;2022-07-29T03:55:32;15.80;;;13.10;;
11887;SDS011;6003;42.756;23.130;2022-07-29T03:58:03;16.60;;;12.50;;
11887;SDS011;6003;42.756;23.130;2022-07-29T04:00:33;16.87;;;12.67;;
11887;SDS011;6003;42.756;23.130;2022-07-29T04:03:01;15.23;;;13.03;;
11887;SDS011;6003;42.756;23.130;2022-07-29T04:05:30;15.07;;;12.70;;
11887;SDS011;6003;42.756;23.130;2022-07-29T04:07:56;16.07;;;12.47;;
11887;SDS011;6003;42.756;23.130;2022-07-29T04:10:25;15.13;;;13.53;;
11887;SDS011;6003;42.756;23.130;2022-07-29T04:12:51;14.40;;;12.90;;
11887;SDS011;6003;42.756;23.130;2022-07-29T04:15:19;19.53;;;13.23;;
11887;SDS011;6003;42.756;23.130;2022-07-29T04:20:16;13.83;;;12.20;;
11887;SDS011;6003;42.756;23.130;2022-07-29T04:22:43;16.90;;;12.97;;
11887;SDS011;6003;42.756;23.130;2022-07-29T04:25:10;14.17;;;12.23;;
11887;SDS011;6003;42.756;23.130;2022-07-29T04:27:38;15.90;;;13.37;;
11887;SDS011;6003;42.756;23.130;2022-07-29T04:30:25;15.33;;;12.93;;
11887;SDS011;6003;42.756;23.130;2022-07-29T04:32:52;16.30;;;13.83;;
11887;SDS011;6003;42.756;23.130;2022-07-29T04:35:19;15.57;;;13.67;;
11887;SDS011;6003;42.756;23.130;2022-07-29T04:37:46;14.87;;;13.37;;
11887;SDS011;6003;42.756;23.130;2022-07-29T04:40:13;14.20;;;12.80;;
11887;SDS011;6003;42.756;23.130;2022-07-29T04:42:42;16.10;;;13.73;;
11887;SDS011;6003;42.756;23.130;2022-07-29T04:45:09;14.83;;;13.30;;
11887;SDS011;6003;42.756;23.130;2022-07-29T04:47:36;19.47;;;14.23;;
11887;SDS011;6003;42.756;23.130;2022-07-29T04:50:03;18.83;;;14.77;;
11887;SDS011;6003;42.756;23.130;2022-07-29T04:52:32;16.90;;;15.20;;
11887;SDS011;6003;42.756;23.130;2022-07-29T04:54:59;17.10;;;15.13;;
11887;SDS011;6003;42.756;23.130;2022-07-29T04:57:26;19.40;;;14.77;;
11887;SDS011;6003;42.756;23.130;2022-07-29T04:59:55;18.23;;;15.87;;
11887;SDS011;6003;42.756;23.130;2022-07-29T05:02:22;17.13;;;15.00;;
11887;SDS011;6003;42.756;23.130;2022-07-29T05:04:48;16.40;;;14.27;;
11887;SDS011;6003;42.756;23.130;2022-07-29T05:07:15;16.73;;;14.93;;
11887;SDS011;6003;42.756;23.130;2022-07-29T05:09:42;16.03;;;14.43;;
11887;SDS011;6003;42.756;23.130;2022-07-29T05:12:10;15.97;;;14.37;;
11887;SDS011;6003;42.756;23.130;2022-07-29T05:14:37;14.17;;;12.67;;
11887;SDS011;6003;42.756;23.130;2022-07-29T05:17:05;14.80;;;12.27;;
11887;SDS011;6003;42.756;23.130;2022-07-29T05:19:33;12.00;;;10.83;;
11887;SDS011;6003;42.756;23.130;2022-07-29T05:22:00;12.97;;;11.67;;
11887;SDS011;6003;42.756;23.130;2022-07-29T05:24:27;12.73;;;10.97;;
11887;SDS011;6003;42.756;23.130;2022-07-29T05:26:54;12.60;;;11.30;;
11887;SDS011;6003;42.756;23.130;2022-07-29T05:29:21;12.47;;;11.17;;
11887;SDS011;6003;42.756;23.130;2022-07-29T05:31:48;11.25;;;10.07;;
11887;SDS011;6003;42.756;23.130;2022-07-29T05:34:18;10.18;;;9.27;;
11887;SDS011;6003;42.756;23.130;2022-07-29T05:36:45;9.68;;;8.65;;
11887;SDS011;6003;42.756;23.130;2022-07-29T05:39:12;11.82;;;10.63;;
11887;SDS011;6003;42.756;23.130;2022-07-29T05:41:39;10.73;;;9.63;;
11887;SDS011;6003;42.756;23.130;2022-07-29T05:44:06;10.25;;;9.23;;
11887;SDS011;6003;42.756;23.130;2022-07-29T05:46:33;10.73;;;9.73;;
11887;SDS011;6003;42.756;23.130;2022-07-29T05:49:00;11.90;;;10.70;;
11887;SDS011;6003;42.756;23.130;2022-07-29T05:51:29;11.52;;;10.45;;
11887;SDS011;6003;42.756;23.130;2022-07-29T05:53:56;10.45;;;9.45;;
11887;SDS011;6003;42.756;23.130;2022-07-29T05:56:23;11.52;;;9.48;;
11887;SDS011;6003;42.756;23.130;2022-07-29T05:58:51;9.00;;;8.20;;
11887;SDS011;6003;42.756;23.130;2022-07-29T06:01:18;8.63;;;7.80;;
11887;SDS011;6003;42.756;23.130;2022-07-29T06:03:45;9.70;;;8.80;;
11887;SDS011;6003;42.756;23.130;2022-07-29T06:06:12;11.63;;;9.63;;
11887;SDS011;6003;42.756;23.130;2022-07-29T06:08:40;11.20;;;10.02;;
11887;SDS011;6003;42.756;23.130;2022-07-29T06:11:07;10.07;;;9.07;;
11887;SDS011;6003;42.756;23.130;2022-07-29T06:13:34;8.70;;;7.90;;
11887;SDS011;6003;42.756;23.130;2022-07-29T06:16:01;9.48;;;8.52;;
11887;SDS011;6003;42.756;23.130;2022-07-29T06:18:29;10.35;;;9.27;;
11887;SDS011;6003;42.756;23.130;2022-07-29T06:20:56;9.85;;;8.40;;
11887;SDS011;6003;42.756;23.130;2022-07-29T06:23:23;9.88;;;8.55;;
11887;SDS011;6003;42.756;23.130;2022-07-29T06:25:51;12.77;;;8.93;;
11887;SDS011;6003;42.756;23.130;2022-07-29T06:28:19;9.98;;;8.98;;
11887;SDS011;6003;42.756;23.130;2022-07-29T06:30:46;12.00;;;9.73;;
11887;SDS011;6003;42.756;23.130;2022-07-29T06:33:16;10.40;;;9.48;;
11887;SDS011;6003;42.756;23.130;2022-07-29T06:35:44;11.10;;;8.88;;
11887;SDS011;6003;42.756;23.130;2022-07-29T06:38:12;9.55;;;8.65;;
11887;SDS011;6003;42.756;23.130;2022-07-29T06:40:40;9.13;;;8.23;;
11887;SDS011;6003;42.756;23.130;2022-07-29T06:43:28;9.00;;;8.10;;
11887;SDS011;6003;42.756;23.130;2022-07-29T06:45:59;10.60;;;8.52;;
11887;SDS011;6003;42.756;23.130;2022-07-29T06:50:56;13.48;;;8.70;;
11887;SDS011;6003;42.756;23.130;2022-07-29T06:53:24;8.32;;;7.60;;
11887;SDS011;6003;42.756;23.130;2022-07-29T06:55:50;9.17;;;8.23;;
11887;SDS011;6003;42.756;23.130;2022-07-29T06:58:18;9.88;;;8.50;;
11887;SDS011;6003;42.756;23.130;2022-07-29T07:00:47;10.27;;;9.27;;
11887;SDS011;6003;42.756;23.130;2022-07-29T07:03:14;10.67;;;9.57;;
11887;SDS011;6003;42.756;23.130;2022-07-29T07:05:41;10.33;;;8.87;;
11887;SDS011;6003;42.756;23.130;2022-07-29T07:08:09;10.10;;;9.20;;
11887;SDS011;6003;42.756;23.130;2022-07-29T07:10:37;9.93;;;8.90;;
11887;SDS011;6003;42.756;23.130;2022-07-29T07:13:08;9.70;;;8.70;;
11887;SDS011;6003;42.756;23.130;2022-07-29T07:15:35;10.33;;;9.10;;
11887;SDS011;6003;42.756;23.130;2022-07-29T07:18:04;9.93;;;8.75;;
11887;SDS011;6003;42.756;23.130;2022-07-29T07:20:32;9.68;;;8.70;;
11887;SDS011;6003;42.756;23.130;2022-07-29T07:22:59;9.55;;;8.75;;
11887;SDS011;6003;42.756;23.130;2022-07-29T07:25:25;9.85;;;8.82;;
11887;SDS011;6003;42.756;23.130;2022-07-29T07:27:53;10.30;;;8.80;;
11887;SDS011;6003;42.756;23.130;2022-07-29T07:30:20;8.73;;;7.82;;
11887;SDS011;6003;42.756;23.130;2022-07-29T07:32:47;9.80;;;8.00;;
11887;SDS011;6003;42.756;23.130;2022-07-29T07:35:16;8.32;;;7.53;;
11887;SDS011;6003;42.756;23.130;2022-07-29T07:37:43;11.77;;;8.57;;
11887;SDS011;6003;42.756;23.130;2022-07-29T07:40:10;11.98;;;7.38;;
11887;SDS011;6003;42.756;23.130;2022-07-29T07:42:38;9.45;;;8.02;;
11887;SDS011;6003;42.756;23.130;2022-07-29T07:45:06;7.90;;;7.20;;
11887;SDS011;6003;42.756;23.130;2022-07-29T07:47:34;11.57;;;7.85;;
11887;SDS011;6003;42.756;23.130;2022-07-29T07:50:02;8.70;;;7.90;;
11887;SDS011;6003;42.756;23.130;2022-07-29T07:52:31;9.60;;;7.70;;
11887;SDS011;6003;42.756;23.130;2022-07-29T07:54:58;9.73;;;8.13;;
11887;SDS011;6003;42.756;23.130;2022-07-29T07:57:26;8.90;;;8.05;;
11887;SDS011;6003;42.756;23.130;2022-07-29T07:59:53;9.15;;;7.63;;
11887;SDS011;6003;42.756;23.130;2022-07-29T08:02:20;8.77;;;7.97;;
11887;SDS011;6003;42.756;23.130;2022-07-29T08:04:47;8.55;;;7.68;;
11887;SDS011;6003;42.756;23.130;2022-07-29T08:07:14;10.48;;;8.20;;
11887;SDS011;6003;42.756;23.130;2022-07-29T08:09:42;10.13;;;8.32;;
11887;SDS011;6003;42.756;23.130;2022-07-29T08:12:09;8.48;;;7.70;;
11887;SDS011;6003;42.756;23.130;2022-07-29T08:14:36;8.25;;;7.20;;
11887;SDS011;6003;42.756;23.130;2022-07-29T08:17:03;8.48;;;7.68;;
11887;SDS011;6003;42.756;23.130;2022-07-29T08:19:30;8.15;;;7.25;;
11887;SDS011;6003;42.756;23.130;2022-07-29T08:21:57;9.48;;;7.53;;
11887;SDS011;6003;42.756;23.130;2022-07-29T08:24:24;8.10;;;6.85;;
11887;SDS011;6003;42.756;23.130;2022-07-29T08:27:13;10.05;;;6.50;;
11887;SDS011;6003;42.756;23.130;2022-07-29T08:29:40;7.15;;;6.47;;
11887;SDS011;6003;42.756;23.130;2022-07-29T08:32:07;7.95;;;5.88;;
11887;SDS011;6003;42.756;23.130;2022-07-29T08:34:34;10.02;;;6.28;;
11887;SDS011;6003;42.756;23.130;2022-07-29T08:37:01;7.10;;;6.40;;
11887;SDS011;6003;42.756;23.130;2022-07-29T08:39:28;6.75;;;6.15;;
11887;SDS011;6003;42.756;23.130;2022-07-29T08:41:55;5.93;;;5.05;;
11887;SDS011;6003;42.756;23.130;2022-07-29T08:44:23;9.23;;;5.72;;
11887;SDS011;6003;42.756;23.130;2022-07-29T08:46:51;8.80;;;5.35;;
11887;SDS011;6003;42.756;23.130;2022-07-29T08:49:18;5.28;;;4.88;;
11887;SDS011;6003;42.756;23.130;2022-07-29T08:51:45;5.38;;;4.70;;
11887;SDS011;6003;42.756;23.130;2022-07-29T08:54:17;4.85;;;4.45;;
11887;SDS011;6003;42.756;23.130;2022-07-29T08:56:44;4.88;;;4.53;;
11887;SDS011;6003;42.756;23.130;2022-07-29T08:59:16;5.43;;;4.93;;
11887;SDS011;6003;42.756;23.130;2022-07-29T09:01:48;6.05;;;4.70;;
11887;SDS011;6003;42.756;23.130;2022-07-29T09:04:18;5.05;;;4.65;;
11887;SDS011;6003;42.756;23.130;2022-07-29T09:06:47;4.78;;;4.30;;
11887;SDS011;6003;42.756;23.130;2022-07-29T09:09:15;5.20;;;4.70;;
11887;SDS011;6003;42.756;23.130;2022-07-29T09:11:42;7.43;;;4.50;;
11887;SDS011;6003;42.756;23.130;2022-07-29T09:14:10;5.63;;;5.03;;
11887;SDS011;6003;42.756;23.130;2022-07-29T09:19:24;5.78;;;4.60;;
11887;SDS011;6003;42.756;23.130;2022-07-29T09:21:53;4.53;;;4.10;;
11887;SDS011;6003;42.756;23.130;2022-07-29T09:24:23;5.13;;;4.72;;
11887;SDS011;6003;42.756;23.130;2022-07-29T09:26:50;5.78;;;5.00;;
11887;SDS011;6003;42.756;23.130;2022-07-29T09:29:18;4.40;;;4.10;;
11887;SDS011;6003;42.756;23.130;2022-07-29T09:31:48;6.03;;;4.47;;
11887;SDS011;6003;42.756;23.130;2022-07-29T09:34:20;6.43;;;4.25;;
11887;SDS011;6003;42.756;23.130;2022-07-29T09:36:50;4.45;;;4.15;;
11887;SDS011;6003;42.756;23.130;2022-07-29T09:39:26;4.65;;;4.25;;
11887;SDS011;6003;42.756;23.130;2022-07-29T09:41:56;8.00;;;4.68;;
11887;SDS011;6003;42.756;23.130;2022-07-29T09:44:24;4.47;;;4.07;;
11887;SDS011;6003;42.756;23.130;2022-07-29T09:46:59;4.40;;;4.20;;
11887;SDS011;6003;42.756;23.130;2022-07-29T09:49:32;4.63;;;4.30;;
11887;SDS011;6003;42.756;23.130;2022-07-29T09:52:00;5.25;;;3.97;;
11887;SDS011;6003;42.756;23.130;2022-07-29T09:54:30;4.55;;;4.15;;
11887;SDS011;6003;42.756;23.130;2022-07-29T09:57:02;4.13;;;3.85;;
11887;SDS011;6003;42.756;23.130;2022-07-29T09:59:29;4.05;;;3.75;;
11887;SDS011;6003;42.756;23.130;2022-07-29T10:01:56;4.38;;;4.07;;
11887;SDS011;6003;42.756;23.130;2022-07-29T10:04:24;4.00;;;3.70;;
11887;SDS011;6003;42.756;23.130;2022-07-29T10:07:05;4.53;;;4.10;;
11887;SDS011;6003;42.756;23.130;2022-07-29T10:09:33;4.00;;;3.70;;
11887;SDS011;6003;42.756;23.130;2022-07-29T10:12:04;4.05;;;3.78;;
11887;SDS011;6003;42.756;23.130;2022-07-29T10:14:33;4.63;;;4.18;;
11887;SDS011;6003;42.756;23.130;2022-07-29T10:17:00;4.13;;;3.78;;
11887;SDS011;6003;42.756;23.130;2022-07-29T10:19:28;6.13;;;4.25;;
11887;SDS011;6003;42.756;23.130;2022-07-29T10:21:58;4.45;;;3.90;;
11887;SDS011;6003;42.756;23.130;2022-07-29T10:24:26;6.60;;;6.03;;
11887;SDS011;6003;42.756;23.130;2022-07-29T10:26:54;6.00;;;4.38;;
11887;SDS011;6003;42.756;23.130;2022-07-29T10:29:22;3.53;;;3.22;;
11887;SDS011;6003;42.756;23.130;2022-07-29T10:31:52;4.05;;;3.70;;
11887;SDS011;6003;42.756;23.130;2022-07-29T10:34:28;4.28;;;3.88;;
11887;SDS011;6003;42.756;23.130;2022-07-29T10:37:12;4.25;;;3.95;;
11887;SDS011;6003;42.756;23.130;2022-07-29T10:39:54;3.75;;;3.55;;
11887;SDS011;6003;42.756;23.130;2022-07-29T10:42:48;3.92;;;3.63;;
11887;SDS011;6003;42.756;23.130;2022-07-29T10:45:18;4.30;;;3.90;;
11887;SDS011;6003;42.756;23.130;2022-07-29T10:47:45;4.30;;;3.90;;
11887;SDS011;6003;42.756;23.130;2022-07-29T10:50:12;4.07;;;3.78;;
11887;SDS011;6003;42.756;23.130;2022-07-29T10:55:32;3.92;;;3.63;;
11887;SDS011;6003;42.756;23.130;2022-07-29T11:01:28;4.30;;;4.00;;
11887;SDS011;6003;42.756;23.130;2022-07-29T11:03:55;6.53;;;5.60;;
11887;SDS011;6003;42.756;23.130;2022-07-29T11:06:22;4.80;;;4.40;;
11887;SDS011;6003;42.756;23.130;2022-07-29T11:11:43;5.35;;;4.88;;
11887;SDS011;6003;42.756;23.130;2022-07-29T11:14:10;4.75;;;4.35;;
11887;SDS011;6003;42.756;23.130;2022-07-29T11:19:28;4.20;;;3.90;;
11887;SDS011;6003;42.756;23.130;2022-07-29T11:21:55;4.72;;;4.25;;
11887;SDS011;6003;42.756;23.130;2022-07-29T11:24:25;4.75;;;4.28;;
11887;SDS011;6003;42.756;23.130;2022-07-29T11:27:07;4.53;;;4.22;;
11887;SDS011;6003;42.756;23.130;2022-07-29T11:29:39;5.20;;;4.70;;
11887;SDS011;6003;42.756;23.130;2022-07-29T11:32:14;4.82;;;4.40;;
11887;SDS011;6003;42.756;23.130;2022-07-29T11:34:43;4.35;;;4.03;;
11887;SDS011;6003;42.756;23.130;2022-07-29T11:37:14;4.47;;;4.18;;
11887;SDS011;6003;42.756;23.130;2022-07-29T11:39:44;4.88;;;4.32;;
11887;SDS011;6003;42.756;23.130;2022-07-29T11:45:11;5.75;;;4.22;;
11887;SDS011;6003;42.756;23.130;2022-07-29T11:47:41;4.47;;;4.18;;
11887;SDS011;6003;42.756;23.130;2022-07-29T11:50:13;4.30;;;3.92;;
11887;SDS011;6003;42.756;23.130;2022-07-29T11:52:42;4.78;;;4.38;;
11887;SDS011;6003;42.756;23.130;2022-07-29T11:55:12;5.30;;;4.90;;
11887;SDS011;6003;42.756;23.130;2022-07-29T11:57:49;5.43;;;4.30;;
11887;SDS011;6003;42.756;23.130;2022-07-29T12:00:22;4.50;;;4.20;;
11887;SDS011;6003;42.756;23.130;2022-07-29T12:02:50;4.22;;;3.92;;
11887;SDS011;6003;42.756;23.130;2022-07-29T12:05:18;4.82;;;4.30;;
11887;SDS011;6003;42.756;23.130;2022-07-29T12:07:45;5.15;;;4.38;;
11887;SDS011;6003;42.756;23.130;2022-07-29T12:10:15;4.43;;;4.13;;
11887;SDS011;6003;42.756;23.130;2022-07-29T12:12:42;3.80;;;3.60;;
11887;SDS011;6003;42.756;23.130;2022-07-29T12:15:17;4.72;;;4.32;;
11887;SDS011;6003;42.756;23.130;2022-07-29T12:20:40;4.28;;;3.92;;
11887;SDS011;6003;42.756;23.130;2022-07-29T12:23:07;5.65;;;4.10;;
11887;SDS011;6003;42.756;23.130;2022-07-29T12:25:38;4.70;;;4.38;;
11887;SDS011;6003;42.756;23.130;2022-07-29T12:28:06;5.25;;;4.10;;
11887;SDS011;6003;42.756;23.130;2022-07-29T12:30:36;4.32;;;4.03;;
11887;SDS011;6003;42.756;23.130;2022-07-29T12:33:10;4.72;;;3.97;;
11887;SDS011;6003;42.756;23.130;2022-07-29T12:35:42;4.53;;;3.95;;
11887;SDS011;6003;42.756;23.130;2022-07-29T12:38:28;4.93;;;3.63;;
11887;SDS011;6003;42.756;23.130;2022-07-29T12:40:56;4.30;;;4.00;;
11887;SDS011;6003;42.756;23.130;2022-07-29T12:43:24;4.80;;;4.05;;
11887;SDS011;6003;42.756;23.130;2022-07-29T12:45:51;4.38;;;4.07;;
11887;SDS011;6003;42.756;23.130;2022-07-29T12:48:32;4.32;;;4.03;;
11887;SDS011;6003;42.756;23.130;2022-07-29T12:51:00;4.85;;;4.47;;
11887;SDS011;6003;42.756;23.130;2022-07-29T12:53:28;4.35;;;4.05;;
11887;SDS011;6003;42.756;23.130;2022-07-29T12:55:57;4.50;;;4.20;;
11887;SDS011;6003;42.756;23.130;2022-07-29T12:58:30;4.30;;;4.00;;
11887;SDS011;6003;42.756;23.130;2022-07-29T13:01:00;4.18;;;3.88;;
11887;SDS011;6003;42.756;23.130;2022-07-29T13:03:47;5.00;;;4.70;;
11887;SDS011;6003;42.756;23.130;2022-07-29T13:09:11;4.50;;;4.20;;
11887;SDS011;6003;42.756;23.130;2022-07-29T13:11:41;5.57;;;4.95;;
11887;SDS011;6003;42.756;23.130;2022-07-29T13:14:10;4.70;;;4.40;;
11887;SDS011;6003;42.756;23.130;2022-07-29T13:19:35;4.63;;;4.30;;
11887;SDS011;6003;42.756;23.130;2022-07-29T13:22:03;7.22;;;4.85;;
11887;SDS011;6003;42.756;23.130;2022-07-29T13:24:31;4.68;;;4.28;;
11887;SDS011;6003;42.756;23.130;2022-07-29T13:26:59;4.70;;;4.20;;
11887;SDS011;6003;42.756;23.130;2022-07-29T13:29:26;4.97;;;4.68;;
11887;SDS011;6003;42.756;23.130;2022-07-29T13:31:54;6.90;;;4.72;;
11887;SDS011;6003;42.756;23.130;2022-07-29T13:34:20;7.28;;;4.80;;
11887;SDS011;6003;42.756;23.130;2022-07-29T13:36:49;4.97;;;4.68;;
11887;SDS011;6003;42.756;23.130;2022-07-29T13:39:16;5.25;;;4.75;;
11887;SDS011;6003;42.756;23.130;2022-07-29T13:41:42;5.78;;;5.32;;
11887;SDS011;6003;42.756;23.130;2022-07-29T13:44:11;5.78;;;5.18;;
11887;SDS011;6003;42.756;23.130;2022-07-29T13:46:37;7.43;;;5.40;;
11887;SDS011;6003;42.756;23.130;2022-07-29T13:49:04;5.55;;;5.15;;
11887;SDS011;6003;42.756;23.130;2022-07-29T13:51:31;5.22;;;4.93;;
11887;SDS011;6003;42.756;23.130;2022-07-29T13:53:58;5.28;;;4.88;;
11887;SDS011;6003;42.756;23.130;2022-07-29T13:56:25;6.22;;;5.72;;
11887;SDS011;6003;42.756;23.130;2022-07-29T13:58:52;7.15;;;5.80;;
11887;SDS011;6003;42.756;23.130;2022-07-29T14:01:20;7.03;;;5.50;;
11887;SDS011;6003;42.756;23.130;2022-07-29T14:03:47;5.90;;;5.50;;
11887;SDS011;6003;42.756;23.130;2022-07-29T14:06:14;6.63;;;6.03;;
11887;SDS011;6003;42.756;23.130;2022-07-29T14:08:41;6.97;;;6.38;;
11887;SDS011;6003;42.756;23.130;2022-07-29T14:11:08;10.18;;;6.38;;
11887;SDS011;6003;42.756;23.130;2022-07-29T14:13:35;7.30;;;6.60;;
11887;SDS011;6003;42.756;23.130;2022-07-29T14:16:02;6.95;;;6.22;;
11887;SDS011;6003;42.756;23.130;2022-07-29T14:18:30;6.30;;;5.82;;
11887;SDS011;6003;42.756;23.130;2022-07-29T14:20:57;6.50;;;6.10;;
11887;SDS011;6003;42.756;23.130;2022-07-29T14:23:24;6.50;;;6.00;;
11887;SDS011;6003;42.756;23.130;2022-07-29T14:25:51;6.45;;;5.85;;
11887;SDS011;6003;42.756;23.130;2022-07-29T14:28:20;6.35;;;5.85;;
11887;SDS011;6003;42.756;23.130;2022-07-29T14:30:47;5.95;;;5.55;;
11887;SDS011;6003;42.756;23.130;2022-07-29T14:33:14;6.18;;;5.75;;
11887;SDS011;6003;42.756;23.130;2022-07-29T14:35:42;7.10;;;6.55;;
11887;SDS011;6003;42.756;23.130;2022-07-29T14:38:10;7.35;;;6.75;;
11887;SDS011;6003;42.756;23.130;2022-07-29T14:40:37;6.47;;;5.82;;
11887;SDS011;6003;42.756;23.130;2022-07-29T14:43:04;6.30;;;5.80;;
11887;SDS011;6003;42.756;23.130;2022-07-29T14:45:31;5.60;;;5.20;;
11887;SDS011;6003;42.756;23.130;2022-07-29T14:47:58;5.32;;;4.93;;
11887;SDS011;6003;42.756;23.130;2022-07-29T14:50:26;5.32;;;4.93;;
11887;SDS011;6003;42.756;23.130;2022-07-29T14:52:55;5.18;;;4.78;;
11887;SDS011;6003;42.756;23.130;2022-07-29T14:55:22;5.70;;;5.15;;
11887;SDS011;6003;42.756;23.130;2022-07-29T14:57:48;5.18;;;4.68;;
11887;SDS011;6003;42.756;23.130;2022-07-29T15:00:16;7.38;;;4.60;;
11887;SDS011;6003;42.756;23.130;2022-07-29T15:02:44;6.18;;;4.82;;
11887;SDS011;6003;42.756;23.130;2022-07-29T15:05:11;4.45;;;4.15;;
11887;SDS011;6003;42.756;23.130;2022-07-29T15:07:38;5.18;;;4.50;;
11887;SDS011;6003;42.756;23.130;2022-07-29T15:10:06;5.22;;;4.60;;
11887;SDS011;6003;42.756;23.130;2022-07-29T15:12:34;5.07;;;4.68;;
11887;SDS011;6003;42.756;23.130;2022-07-29T15:15:01;5.32;;;4.95;;
11887;SDS011;6003;42.756;23.130;2022-07-29T15:17:28;4.90;;;4.43;;
11887;SDS011;6003;42.756;23.130;2022-07-29T15:19:55;5.53;;;5.15;;
11887;SDS011;6003;42.756;23.130;2022-07-29T15:22:22;6.75;;;4.53;;